sensor_id;sensor_type;location;lat;lon;timestamp;pressure;altitude;pressure_sealevel;temperature;humidity
16100;BME280;8154;50.830;12.082;2023-02-20T00:01:27;100122.28;;;25.88;31.42
16100;BME280;8154;50.830;12.082;2023-02-20T00:03:53;100118.75;;;25.87;31.43
16100;BME280;8154;50.830;12.082;2023-02-20T00:06:19;100121.00;;;25.83;31.13
16100;BME280;8154;50.830;12.082;2023-02-20T00:08:45;100125.78;;;25.88;31.04
16100;BME280;8154;50.830;12.082;2023-02-20T00:11:11;100117.13;;;25.86;31.30
16100;BME280;8154;50.830;12.082;2023-02-20T00:13:44;100118.56;;;25.88;31.08
16100;BME280;8154;50.830;12.082;2023-02-20T00:16:10;100118.56;;;25.88;31.13
16100;BME280;8154;50.830;12.082;2023-02-20T00:18:36;100122.28;;;25.88;31.31
16100;BME280;8154;50.830;12.082;2023-02-20T00:21:04;100123.31;;;25.87;31.34
16100;BME280;8154;50.830;12.082;2023-02-20T00:23:33;100118.75;;;25.87;31.08
16100;BME280;8154;50.830;12.082;2023-02-20T00:26:00;100115.28;;;25.87;31.28
16100;BME280;8154;50.830;12.082;2023-02-20T00:28:26;100112.59;;;25.87;31.31
16100;BME280;8154;50.830;12.082;2023-02-20T00:30:54;100117.94;;;25.87;31.36
16100;BME280;8154;50.830;12.082;2023-02-20T00:33:20;100108.03;;;25.87;31.30
16100;BME280;8154;50.830;12.082;2023-02-20T00:35:46;100108.25;;;25.85;31.41
16100;BME280;8154;50.830;12.082;2023-02-20T00:38:13;100108.25;;;25.85;31.07
16100;BME280;8154;50.830;12.082;2023-02-20T00:40:39;100103.91;;;25.84;31.31
16100;BME280;8154;50.830;12.082;2023-02-20T00:43:06;100101.44;;;25.83;31.27
16100;BME280;8154;50.830;12.082;2023-02-20T00:45:32;100104.94;;;25.83;31.45
16100;BME280;8154;50.830;12.082;2023-02-20T00:47:58;100099.56;;;25.83;31.03
16100;BME280;8154;50.830;12.082;2023-02-20T00:50:24;100096.88;;;25.83;31.42
16100;BME280;8154;50.830;12.082;2023-02-20T00:52:51;100093.59;;;25.81;31.07
16100;BME280;8154;50.830;12.082;2023-02-20T00:55:18;100086.19;;;25.83;31.15
16100;BME280;8154;50.830;12.082;2023-02-20T00:57:45;100086.19;;;25.83;31.17
16100;BME280;8154;50.830;12.082;2023-02-20T01:00:21;100090.72;;;25.83;31.13
16100;BME280;8154;50.830;12.082;2023-02-20T01:02:48;100091.13;;;25.80;31.32
16100;BME280;8154;50.830;12.082;2023-02-20T01:05:14;100087.22;;;25.82;31.07
16100;BME280;8154;50.830;12.082;2023-02-20T01:07:41;100094.22;;;25.83;31.12
16100;BME280;8154;50.830;12.082;2023-02-20T01:10:07;100090.72;;;25.83;31.17
16100;BME280;8154;50.830;12.082;2023-02-20T01:12:34;100096.88;;;25.83;31.13
16100;BME280;8154;50.830;12.082;2023-02-20T01:15:00;100096.09;;;25.83;31.34
16100;BME280;8154;50.830;12.082;2023-02-20T01:17:26;100085.38;;;25.83;30.93
16100;BME280;8154;50.830;12.082;2023-02-20T01:19:52;100085.31;;;25.76;31.20
16100;BME280;8154;50.830;12.082;2023-02-20T01:22:18;100079.19;;;25.82;31.09
16100;BME280;8154;50.830;12.082;2023-02-20T01:24:44;100088.25;;;25.81;31.52
16100;BME280;8154;50.830;12.082;2023-02-20T01:27:10;100080.59;;;25.78;30.89
16100;BME280;8154;50.830;12.082;2023-02-20T01:29:36;100074.22;;;25.79;31.15
16100;BME280;8154;50.830;12.082;2023-02-20T01:32:02;100066.19;;;25.79;31.41
16100;BME280;8154;50.830;12.082;2023-02-20T01:34:28;100071.34;;;25.81;31.42
16100;BME280;8154;50.830;12.082;2023-02-20T01:36:55;100071.34;;;25.81;31.25
16100;BME280;8154;50.830;12.082;2023-02-20T01:39:23;100068.22;;;25.77;31.29
16100;BME280;8154;50.830;12.082;2023-02-20T01:41:53;100074.22;;;25.79;31.34
16100;BME280;8154;50.830;12.082;2023-02-20T01:44:26;100068.84;;;25.79;31.28
16100;BME280;8154;50.830;12.082;2023-02-20T01:46:54;100076.25;;;25.77;31.42
16100;BME280;8154;50.830;12.082;2023-02-20T01:49:27;100063.50;;;25.79;31.17
16100;BME280;8154;50.830;12.082;2023-02-20T01:52:25;100058.16;;;25.79;31.12
16100;BME280;8154;50.830;12.082;2023-02-20T01:54:58;100057.31;;;25.79;31.17
16100;BME280;8154;50.830;12.082;2023-02-20T01:57:27;100063.50;;;25.79;31.19
16100;BME280;8154;50.830;12.082;2023-02-20T01:59:59;100068.84;;;25.79;31.08
16100;BME280;8154;50.830;12.082;2023-02-20T02:02:32;100060.00;;;25.79;31.10
16100;BME280;8154;50.830;12.082;2023-02-20T02:04:59;100060.19;;;25.77;31.34
16100;BME280;8154;50.830;12.082;2023-02-20T02:07:26;100059.19;;;25.78;31.31
16100;BME280;8154;50.830;12.082;2023-02-20T02:10:03;100053.81;;;25.78;31.08
16100;BME280;8154;50.830;12.082;2023-02-20T02:12:31;100057.50;;;25.77;31.26
16100;BME280;8154;50.830;12.082;2023-02-20T02:14:58;100054.81;;;25.77;31.05
16100;BME280;8154;50.830;12.082;2023-02-20T05:19:10;99987.19;;;25.62;31.01
16100;BME280;8154;50.830;12.082;2023-02-20T05:21:36;99975.66;;;25.62;31.30
16100;BME280;8154;50.830;12.082;2023-02-20T05:24:21;99967.41;;;25.63;31.09
16100;BME280;8154;50.830;12.082;2023-02-20T05:26:48;99967.41;;;25.63;31.11
16100;BME280;8154;50.830;12.082;2023-02-20T05:29:14;99962.47;;;25.60;31.10
16100;BME280;8154;50.830;12.082;2023-02-20T05:31:41;99971.13;;;25.62;31.20
16100;BME280;8154;50.830;12.082;2023-02-20T05:34:07;99973.81;;;25.62;31.14
16100;BME280;8154;50.830;12.082;2023-02-20T05:36:34;99976.47;;;25.62;31.27
16100;BME280;8154;50.830;12.082;2023-02-20T05:39:00;99967.41;;;25.63;31.23
16100;BME280;8154;50.830;12.082;2023-02-20T05:41:28;99957.75;;;25.62;31.34
16100;BME280;8154;50.830;12.082;2023-02-20T05:43:54;99952.19;;;25.64;31.05
16100;BME280;8154;50.830;12.082;2023-02-20T05:46:23;99954.03;;;25.63;31.31
16100;BME280;8154;50.830;12.082;2023-02-20T05:48:52;99953.03;;;25.64;31.32
16100;BME280;8154;50.830;12.082;2023-02-20T05:51:23;99941.69;;;25.62;31.17
16100;BME280;8154;50.830;12.082;2023-02-20T05:53:50;99941.69;;;25.62;30.93
16100;BME280;8154;50.830;12.082;2023-02-20T05:56:17;99937.38;;;25.61;30.94
16100;BME280;8154;50.830;12.082;2023-02-20T05:58:45;99935.50;;;25.62;31.28
16100;BME280;8154;50.830;12.082;2023-02-20T06:01:23;99930.97;;;25.62;31.21
16100;BME280;8154;50.830;12.082;2023-02-20T06:03:51;99938.16;;;25.62;31.23
16100;BME280;8154;50.830;12.082;2023-02-20T06:06:18;99923.78;;;25.63;31.19
16100;BME280;8154;50.830;12.082;2023-02-20T06:08:45;99925.22;;;25.65;30.91
16100;BME280;8154;50.830;12.082;2023-02-20T06:11:12;99928.28;;;25.62;31.11
16100;BME280;8154;50.830;12.082;2023-02-20T06:13:39;99950.56;;;25.63;31.05
16100;BME280;8154;50.830;12.082;2023-02-20T06:16:07;99968.44;;;25.62;31.23
16100;BME280;8154;50.830;12.082;2023-02-20T06:18:33;99972.78;;;25.63;31.24
16100;BME280;8154;50.830;12.082;2023-02-20T07:19:13;99890.81;;;25.62;30.97
16100;BME280;8154;50.830;12.082;2023-02-20T07:21:39;99891.66;;;25.63;31.24
16100;BME280;8154;50.830;12.082;2023-02-20T07:24:06;99887.94;;;25.64;30.77
16100;BME280;8154;50.830;12.082;2023-02-20T07:26:32;99887.75;;;25.65;30.98
16100;BME280;8154;50.830;12.082;2023-02-20T07:29:00;99891.25;;;25.66;31.20
16100;BME280;8154;50.830;12.082;2023-02-20T07:31:27;99887.53;;;25.67;30.80
16100;BME280;8154;50.830;12.082;2023-02-20T07:33:53;99880.56;;;25.66;30.86
16100;BME280;8154;50.830;12.082;2023-02-20T07:36:20;99869.41;;;25.62;31.03
16100;BME280;8154;50.830;12.082;2023-02-20T07:38:54;99870.66;;;25.66;30.92
16100;BME280;8154;50.830;12.082;2023-02-20T07:41:22;99852.94;;;25.65;31.22
16100;BME280;8154;50.830;12.082;2023-02-20T07:43:49;99864.69;;;25.64;30.89
16100;BME280;8154;50.830;12.082;2023-02-20T07:46:16;99873.16;;;25.68;30.77
16100;BME280;8154;50.830;12.082;2023-02-20T07:48:42;99872.94;;;25.69;30.85
16100;BME280;8154;50.830;12.082;2023-02-20T07:51:08;99882.63;;;25.70;30.97
16100;BME280;8154;50.830;12.082;2023-02-20T07:53:34;99869.44;;;25.69;30.90
16100;BME280;8154;50.830;12.082;2023-02-20T07:56:00;99860.38;;;25.70;30.84
16100;BME280;8154;50.830;12.082;2023-02-20T07:58:26;99856.88;;;25.69;30.96
16100;BME280;8154;50.830;12.082;2023-02-20T08:00:53;99873.56;;;25.71;30.78
16100;BME280;8154;50.830;12.082;2023-02-20T08:03:19;99879.75;;;25.72;30.77
16100;BME280;8154;50.830;12.082;2023-02-20T08:05:46;99861.63;;;25.74;30.71
16100;BME280;8154;50.830;12.082;2023-02-20T08:08:12;99869.47;;;25.75;30.82
16100;BME280;8154;50.830;12.082;2023-02-20T08:10:38;99855.25;;;25.75;31.07
16100;BME280;8154;50.830;12.082;2023-02-20T08:13:04;99848.84;;;25.76;30.77
16100;BME280;8154;50.830;12.082;2023-02-20T08:15:30;99838.97;;;25.76;30.72
16100;BME280;8154;50.830;12.082;2023-02-20T08:17:56;99822.91;;;25.76;30.98
16100;BME280;8154;50.830;12.082;2023-02-20T08:20:23;99812.19;;;25.76;30.81
16100;BME280;8154;50.830;12.082;2023-02-20T08:22:49;99814.69;;;25.78;30.85
16100;BME280;8154;50.830;12.082;2023-02-20T08:25:16;99802.13;;;25.78;30.99
16100;BME280;8154;50.830;12.082;2023-02-20T08:27:46;99801.09;;;25.79;30.68
16100;BME280;8154;50.830;12.082;2023-02-20T08:30:17;99799.03;;;25.81;31.01
16100;BME280;8154;50.830;12.082;2023-02-20T08:32:44;99794.50;;;25.82;30.97
16100;BME280;8154;50.830;12.082;2023-02-20T08:35:10;99807.69;;;25.83;30.74
16100;BME280;8154;50.830;12.082;2023-02-20T08:37:37;99791.41;;;25.85;30.65
16100;BME280;8154;50.830;12.082;2023-02-20T08:40:04;99792.25;;;25.85;30.61
16100;BME280;8154;50.830;12.082;2023-02-20T08:42:33;99782.38;;;25.86;30.65
16100;BME280;8154;50.830;12.082;2023-02-20T08:45:00;99784.44;;;25.91;30.51
16100;BME280;8154;50.830;12.082;2023-02-20T08:47:27;99779.50;;;25.94;30.73
16100;BME280;8154;50.830;12.082;2023-02-20T08:49:53;99768.38;;;25.97;30.55
16100;BME280;8154;50.830;12.082;2023-02-20T08:52:19;99768.19;;;25.99;30.67
16100;BME280;8154;50.830;12.082;2023-02-20T08:54:46;99776.22;;;25.99;30.56
16100;BME280;8154;50.830;12.082;2023-02-20T08:57:14;99781.41;;;26.00;30.72
16100;BME280;8154;50.830;12.082;2023-02-20T08:59:41;99776.03;;;26.00;30.76
16100;BME280;8154;50.830;12.082;2023-02-20T09:02:18;99770.69;;;26.00;30.54
16100;BME280;8154;50.830;12.082;2023-02-20T09:04:45;99775.19;;;26.00;30.52
16100;BME280;8154;50.830;12.082;2023-02-20T09:07:12;99782.19;;;26.01;30.67
16100;BME280;8154;50.830;12.082;2023-02-20T09:09:39;99777.88;;;26.00;30.65
16100;BME280;8154;50.830;12.082;2023-02-20T09:12:06;99776.84;;;26.01;30.64
16100;BME280;8154;50.830;12.082;2023-02-20T09:14:33;99777.03;;;25.99;30.59
16100;BME280;8154;50.830;12.082;2023-02-20T09:16:58;99773.53;;;25.99;30.70
16100;BME280;8154;50.830;12.082;2023-02-20T09:19:24;99777.22;;;25.98;30.60
16100;BME280;8154;50.830;12.082;2023-02-20T10:26:07;99756.44;;;26.00;30.62
16100;BME280;8154;50.830;12.082;2023-02-20T13:29:27;99468.00;;;26.07;30.60
16100;BME280;8154;50.830;12.082;2023-02-20T13:31:56;99451.09;;;26.06;30.74
16100;BME280;8154;50.830;12.082;2023-02-20T13:34:32;99443.06;;;26.06;30.63
16100;BME280;8154;50.830;12.082;2023-02-20T13:37:00;99441.22;;;26.07;30.60
16100;BME280;8154;50.830;12.082;2023-02-20T13:39:37;99433.19;;;26.07;30.57
16100;BME280;8154;50.830;12.082;2023-02-20T13:42:27;99435.03;;;26.06;30.47
16100;BME280;8154;50.830;12.082;2023-02-20T13:44:54;99435.25;;;26.05;30.69
16100;BME280;8154;50.830;12.082;2023-02-20T13:52:39;99422.47;;;26.07;30.37
16100;BME280;8154;50.830;12.082;2023-02-20T13:57:49;99412.78;;;26.06;30.51
16100;BME280;8154;50.830;12.082;2023-02-20T14:02:48;99402.28;;;26.04;30.61
16100;BME280;8154;50.830;12.082;2023-02-20T14:07:50;99420.19;;;26.04;30.70
16100;BME280;8154;50.830;12.082;2023-02-20T14:10:17;99422.88;;;26.04;30.64
16100;BME280;8154;50.830;12.082;2023-02-20T14:12:45;99410.53;;;26.03;30.49
16100;BME280;8154;50.830;12.082;2023-02-20T14:15:17;99416.50;;;26.05;30.49
16100;BME280;8154;50.830;12.082;2023-02-20T14:17:44;99425.56;;;26.04;30.48
16100;BME280;8154;50.830;12.082;2023-02-20T14:20:19;99425.56;;;26.04;30.57
16100;BME280;8154;50.830;12.082;2023-02-20T14:22:48;99436.47;;;26.02;30.84
16100;BME280;8154;50.830;12.082;2023-02-20T14:25:25;99442.88;;;26.01;30.68
16100;BME280;8154;50.830;12.082;2023-02-20T14:28:03;99455.44;;;26.01;30.50
16100;BME280;8154;50.830;12.082;2023-02-20T15:31:56;99444.09;;;25.99;30.61
16100;BME280;8154;50.830;12.082;2023-02-20T15:34:31;99452.34;;;25.97;30.63
16100;BME280;8154;50.830;12.082;2023-02-20T15:37:16;99447.00;;;25.97;30.74
16100;BME280;8154;50.830;12.082;2023-02-20T15:39:44;99435.25;;;25.98;30.58
16100;BME280;8154;50.830;12.082;2023-02-20T15:42:14;99438.75;;;25.99;30.50
16100;BME280;8154;50.830;12.082;2023-02-20T15:44:40;99450.28;;;25.99;30.55
16100;BME280;8154;50.830;12.082;2023-02-20T15:47:06;99435.47;;;25.97;30.73
16100;BME280;8154;50.830;12.082;2023-02-20T15:49:33;99438.97;;;25.97;30.63
16100;BME280;8154;50.830;12.082;2023-02-20T15:51:59;99439.97;;;25.96;30.70
16100;BME280;8154;50.830;12.082;2023-02-20T15:54:25;99433.81;;;25.96;30.67
16100;BME280;8154;50.830;12.082;2023-02-20T15:56:52;99449.47;;;25.99;30.45
16100;BME280;8154;50.830;12.082;2023-02-20T15:59:18;99454.00;;;25.98;30.65
16100;BME280;8154;50.830;12.082;2023-02-20T16:01:45;99435.88;;;26.00;30.67
16100;BME280;8154;50.830;12.082;2023-02-20T16:04:16;99438.75;;;25.99;30.51
16100;BME280;8154;50.830;12.082;2023-02-20T16:06:43;99450.47;;;25.98;30.51
16100;BME280;8154;50.830;12.082;2023-02-20T16:09:11;99461.19;;;25.98;30.45
16100;BME280;8154;50.830;12.082;2023-02-20T16:11:43;99463.06;;;25.97;30.82
16100;BME280;8154;50.830;12.082;2023-02-20T16:14:12;99467.59;;;25.97;30.57
16100;BME280;8154;50.830;12.082;2023-02-20T16:16:44;99480.97;;;25.97;30.58
16100;BME280;8154;50.830;12.082;2023-02-20T16:19:16;99487.97;;;25.98;30.51
16100;BME280;8154;50.830;12.082;2023-02-20T16:21:43;99496.00;;;25.98;30.79
16100;BME280;8154;50.830;12.082;2023-02-20T16:24:10;99505.91;;;25.97;30.69
16100;BME280;8154;50.830;12.082;2023-02-20T16:26:37;99506.94;;;25.96;30.43
16100;BME280;8154;50.830;12.082;2023-02-20T16:29:13;99513.31;;;25.95;30.50
16100;BME280;8154;50.830;12.082;2023-02-20T17:32:54;99513.56;;;25.87;30.86
16100;BME280;8154;50.830;12.082;2023-02-20T17:35:20;99522.63;;;25.86;30.80
16100;BME280;8154;50.830;12.082;2023-02-20T17:37:46;99526.13;;;25.87;30.83
16100;BME280;8154;50.830;12.082;2023-02-20T17:40:14;99520.56;;;25.88;30.65
16100;BME280;8154;50.830;12.082;2023-02-20T17:42:40;99525.94;;;25.88;30.75
16100;BME280;8154;50.830;12.082;2023-02-20T17:45:07;99523.03;;;25.90;30.85
16100;BME280;8154;50.830;12.082;2023-02-20T17:47:33;99521.38;;;25.88;30.78
16100;BME280;8154;50.830;12.082;2023-02-20T17:50:03;99529.41;;;25.88;30.87
16100;BME280;8154;50.830;12.082;2023-02-20T17:52:29;99534.16;;;25.87;30.53
16100;BME280;8154;50.830;12.082;2023-02-20T17:54:55;99525.31;;;25.86;30.70
16100;BME280;8154;50.830;12.082;2023-02-20T17:57:22;99529.63;;;25.87;30.80
16100;BME280;8154;50.830;12.082;2023-02-20T17:59:49;99517.88;;;25.88;30.82
16100;BME280;8154;50.830;12.082;2023-02-20T18:02:16;99524.25;;;25.87;30.60
16100;BME280;8154;50.830;12.082;2023-02-20T18:04:43;99517.88;;;25.88;30.65
16100;BME280;8154;50.830;12.082;2023-02-20T18:07:10;99512.53;;;25.88;30.93
16100;BME280;8154;50.830;12.082;2023-02-20T18:09:36;99499.94;;;25.88;30.71
16100;BME280;8154;50.830;12.082;2023-02-20T18:12:04;99499.94;;;25.88;30.95
16100;BME280;8154;50.830;12.082;2023-02-20T18:14:30;99499.94;;;25.88;30.51
16100;BME280;8154;50.830;12.082;2023-02-20T18:16:56;99508.19;;;25.87;30.83
16100;BME280;8154;50.830;12.082;2023-02-20T18:19:23;99502.03;;;25.87;30.65
16100;BME280;8154;50.830;12.082;2023-02-20T18:21:50;99504.09;;;25.84;30.58
16100;BME280;8154;50.830;12.082;2023-02-20T18:24:20;99502.03;;;25.87;30.82
16100;BME280;8154;50.830;12.082;2023-02-20T18:26:49;99508.19;;;25.87;30.61
16100;BME280;8154;50.830;12.082;2023-02-20T18:29:15;99503.03;;;25.85;30.68
16100;BME280;8154;50.830;12.082;2023-02-20T18:31:41;99507.41;;;25.87;30.67
16100;BME280;8154;50.830;12.082;2023-02-20T18:34:07;99498.53;;;25.86;30.77
16100;BME280;8154;50.830;12.082;2023-02-20T18:36:33;99513.75;;;25.85;30.88
16100;BME280;8154;50.830;12.082;2023-02-20T18:38:59;99511.09;;;25.85;30.75
16100;BME280;8154;50.830;12.082;2023-02-20T18:41:25;99511.09;;;25.85;30.87
16100;BME280;8154;50.830;12.082;2023-02-20T18:43:51;99513.97;;;25.84;30.86
16100;BME280;8154;50.830;12.082;2023-02-20T18:46:28;99515.22;;;25.88;30.71
16100;BME280;8154;50.830;12.082;2023-02-20T18:48:55;99517.06;;;25.88;30.80
16100;BME280;8154;50.830;12.082;2023-02-20T18:51:35;99523.25;;;25.88;30.90
16100;BME280;8154;50.830;12.082;2023-02-20T18:54:04;99520.78;;;25.87;30.45
16100;BME280;8154;50.830;12.082;2023-02-20T18:56:32;99533.34;;;25.86;30.82
16100;BME280;8154;50.830;12.082;2023-02-20T18:59:01;99528.81;;;25.87;30.60
16100;BME280;8154;50.830;12.082;2023-02-20T19:01:29;99533.34;;;25.86;30.82
16100;BME280;8154;50.830;12.082;2023-02-20T19:03:56;99528.59;;;25.88;30.75
16100;BME280;8154;50.830;12.082;2023-02-20T19:06:30;99523.47;;;25.87;30.78
16100;BME280;8154;50.830;12.082;2023-02-20T19:09:02;99523.47;;;25.87;30.56
16100;BME280;8154;50.830;12.082;2023-02-20T19:11:29;99519.94;;;25.86;30.47
16100;BME280;8154;50.830;12.082;2023-02-20T19:13:55;99512.75;;;25.87;30.68
16100;BME280;8154;50.830;12.082;2023-02-20T19:16:22;99501.41;;;25.84;30.67
16100;BME280;8154;50.830;12.082;2023-02-20T19:18:49;99517.28;;;25.86;30.71
16100;BME280;8154;50.830;12.082;2023-02-20T19:21:17;99512.94;;;25.85;30.61
16100;BME280;8154;50.830;12.082;2023-02-20T19:23:47;99511.09;;;25.85;30.73
16100;BME280;8154;50.830;12.082;2023-02-20T19:26:14;99511.91;;;25.86;30.95
16100;BME280;8154;50.830;12.082;2023-02-20T19:28:53;99516.00;;;25.88;30.67
16100;BME280;8154;50.830;12.082;2023-02-20T19:31:19;99511.50;;;25.89;30.91
16100;BME280;8154;50.830;12.082;2023-02-20T19:33:48;99513.34;;;25.88;30.91
16100;BME280;8154;50.830;12.082;2023-02-20T19:36:20;99521.38;;;25.88;30.91
16100;BME280;8154;50.830;12.082;2023-02-20T19:38:46;99512.75;;;25.87;30.70
16100;BME280;8154;50.830;12.082;2023-02-20T19:41:14;99518.91;;;25.87;30.55
16100;BME280;8154;50.830;12.082;2023-02-20T19:43:43;99518.69;;;25.88;30.59
16100;BME280;8154;50.830;12.082;2023-02-20T19:46:19;99513.97;;;25.84;30.71
16100;BME280;8154;50.830;12.082;2023-02-20T19:49:04;99514.38;;;25.88;30.88
16100;BME280;8154;50.830;12.082;2023-02-20T19:51:35;99518.69;;;25.88;30.52
16100;BME280;8154;50.830;12.082;2023-02-20T19:54:01;99522.19;;;25.89;30.70
16100;BME280;8154;50.830;12.082;2023-02-20T19:56:28;99527.34;;;25.91;30.51
16100;BME280;8154;50.830;12.082;2023-02-20T19:58:58;99531.06;;;25.90;30.59
16100;BME280;8154;50.830;12.082;2023-02-20T20:01:29;99535.59;;;25.89;30.78
16100;BME280;8154;50.830;12.082;2023-02-20T20:03:56;99540.31;;;25.87;30.81
16100;BME280;8154;50.830;12.082;2023-02-20T20:06:30;99537.66;;;25.87;30.76
16100;BME280;8154;50.830;12.082;2023-02-20T20:08:57;99529.41;;;25.88;30.79
16100;BME280;8154;50.830;12.082;2023-02-20T20:11:26;99546.31;;;25.89;30.73
16100;BME280;8154;50.830;12.082;2023-02-20T20:13:53;99543.41;;;25.91;30.71
16100;BME280;8154;50.830;12.082;2023-02-20T20:16:20;99547.13;;;25.90;30.86
16100;BME280;8154;50.830;12.082;2023-02-20T20:18:49;99542.78;;;25.88;30.81
16100;BME280;8154;50.830;12.082;2023-02-20T20:21:16;99536.63;;;25.88;30.86
16100;BME280;8154;50.830;12.082;2023-02-20T20:23:42;99534.16;;;25.87;30.75
16100;BME280;8154;50.830;12.082;2023-02-20T20:26:10;99543.22;;;25.85;30.86
16100;BME280;8154;50.830;12.082;2023-02-20T20:28:37;99533.34;;;25.86;30.64
16100;BME280;8154;50.830;12.082;2023-02-20T20:31:04;99545.47;;;25.88;30.68
16100;BME280;8154;50.830;12.082;2023-02-20T20:33:34;99536.63;;;25.88;30.79
16100;BME280;8154;50.830;12.082;2023-02-20T20:36:00;99535.59;;;25.89;30.69
16100;BME280;8154;50.830;12.082;2023-02-20T20:38:28;99545.25;;;25.90;30.55
16100;BME280;8154;50.830;12.082;2023-02-20T20:40:57;99534.97;;;25.87;30.84
16100;BME280;8154;50.830;12.082;2023-02-20T20:43:25;99539.53;;;25.87;30.91
16100;BME280;8154;50.830;12.082;2023-02-20T20:45:53;99535.81;;;25.88;30.69
16100;BME280;8154;50.830;12.082;2023-02-20T20:48:20;99532.28;;;25.87;30.90
16100;BME280;8154;50.830;12.082;2023-02-20T20:50:49;99525.94;;;25.88;30.92
16100;BME280;8154;50.830;12.082;2023-02-20T20:53:16;99526.72;;;25.88;30.91
16100;BME280;8154;50.830;12.082;2023-02-20T20:55:42;99529.41;;;25.88;30.92
16100;BME280;8154;50.830;12.082;2023-02-20T20:58:09;99531.28;;;25.88;30.77
16100;BME280;8154;50.830;12.082;2023-02-20T21:00:39;99534.75;;;25.88;30.58
16100;BME280;8154;50.830;12.082;2023-02-20T21:03:07;99525.94;;;25.88;30.91
16100;BME280;8154;50.830;12.082;2023-02-20T21:05:50;99521.78;;;25.85;30.58
16100;BME280;8154;50.830;12.082;2023-02-20T21:08:17;99531.50;;;25.87;30.57
16100;BME280;8154;50.830;12.082;2023-02-20T21:10:43;99524.88;;;25.89;30.74
16100;BME280;8154;50.830;12.082;2023-02-20T21:13:29;99533.75;;;25.90;30.85
16100;BME280;8154;50.830;12.082;2023-02-20T21:15:56;99528.41;;;25.90;30.63
16100;BME280;8154;50.830;12.082;2023-02-20T21:18:22;99527.78;;;25.88;30.83
16100;BME280;8154;50.830;12.082;2023-02-20T21:21:08;99528.59;;;25.88;30.81
16100;BME280;8154;50.830;12.082;2023-02-20T21:23:53;99517.28;;;25.86;30.84
16100;BME280;8154;50.830;12.082;2023-02-20T21:26:20;99518.09;;;25.87;31.06
16100;BME280;8154;50.830;12.082;2023-02-20T21:28:49;99514.59;;;25.86;30.65
16100;BME280;8154;50.830;12.082;2023-02-20T21:31:27;99510.06;;;25.87;30.85
16100;BME280;8154;50.830;12.082;2023-02-20T21:33:55;99517.88;;;25.88;30.63
